TimeEST,TemperatureF,Dew PointF,Humidity,Sea Level PressureIn,VisibilityMPH,Wind Direction,Wind SpeedMPH,Gust SpeedMPH,PrecipitationIn,Events,Conditions,WindDirDegrees,DateUTC
12:53 AM,77.0,71.1,82,30.02,10.0,SE,13.8,-,N/A,,Clear,130,2014-01-02 05:53:00
1:53 AM,77.0,71.1,82,30.01,10.0,SE,11.5,-,N/A,,Partly Cloudy,130,2014-01-02 06:53:00
2:53 AM,77.0,70.0,79,29.99,10.0,SE,16.1,-,N/A,,Clear,140,2014-01-02 07:53:00
3:53 AM,77.0,70.0,79,29.99,10.0,SSE,13.8,-,N/A,,Clear,150,2014-01-02 08:53:00
4:53 AM,77.0,70.0,79,29.99,10.0,SSE,15.0,-,N/A,,Scattered Clouds,150,2014-01-02 09:53:00
5:53 AM,77.0,68.0,74,29.99,10.0,South,15.0,-,N/A,,Clear,180,2014-01-02 10:53:00
6:53 AM,77.0,68.0,74,30.00,10.0,South,12.7,-,N/A,,Clear,180,2014-01-02 11:53:00
7:53 AM,77.0,69.1,76,30.02,10.0,South,15.0,-,N/A,,Partly Cloudy,180,2014-01-02 12:53:00
8:53 AM,78.1,70.0,76,30.04,10.0,South,13.8,-,N/A,,Clear,180,2014-01-02 13:53:00
9:53 AM,79.0,71.1,77,30.04,10.0,South,11.5,-,N/A,,Clear,170,2014-01-02 14:53:00
10:53 AM,80.1,71.1,74,30.03,10.0,South,11.5,-,N/A,,Clear,180,2014-01-02 15:53:00
11:53 AM,80.1,72.0,76,30.00,10.0,South,11.5,-,N/A,,Clear,190,2014-01-02 16:53:00
12:53 PM,80.1,71.1,74,29.97,10.0,SSW,11.5,-,N/A,,Clear,210,2014-01-02 17:53:00
1:53 PM,80.1,71.1,74,29.95,10.0,SW,10.4,-,N/A,,Clear,220,2014-01-02 18:53:00
2:53 PM,80.1,71.1,74,29.94,10.0,SW,9.2,-,N/A,,Clear,230,2014-01-02 19:53:00
3:53 PM,79.0,71.1,77,29.93,6.0,SW,8.1,-,N/A,,Haze,230,2014-01-02 20:53:00
4:53 PM,79.0,71.1,77,29.94,10.0,WSW,8.1,-,N/A,,Clear,240,2014-01-02 21:53:00
5:53 PM,77.0,70.0,79,29.94,10.0,WSW,6.9,-,N/A,,Clear,250,2014-01-02 22:53:00
6:53 PM,75.9,70.0,82,29.95,10.0,West,5.8,-,N/A,,Clear,270,2014-01-02 23:53:00
7:53 PM,75.0,71.1,87,29.96,10.0,West,4.6,-,N/A,,Clear,260,2014-01-03 00:53:00
8:53 PM,75.0,72.0,90,29.98,10.0,WNW,4.6,-,N/A,,Clear,290,2014-01-03 01:53:00
9:53 PM,73.9,72.0,93,29.99,10.0,West,4.6,-,N/A,,Clear,270,2014-01-03 02:53:00
10:53 PM,73.9,72.0,93,29.98,10.0,West,4.6,-,N/A,,Clear,260,2014-01-03 03:53:00
11:53 PM,75.0,71.1,87,29.99,10.0,West,6.9,-,N/A,,Clear,260,2014-01-03 04:53:00